Abiquiu, NM

3:45 PM MDT on April 24, 2017 (GMT -0600)
Las Silvestres | | Change Station
Active Advisory: Fire Weather Warning

Elev 6010 ft 36.22 °N, 106.37 °W | Updated 13 minutes ago

Partly Cloudy
Partly Cloudy
73.8 °F
Feels Like 75 °F
N
5.0
Wind Variable Wind from NE
Gusts 18.0 mph

Today
High -- | Low -- °F
--% Chance of Precip.
Yesterday
High -- | Low -- °F
Precip. -- in
Pressure 29.81 in
Visibility 10.0 miles
Clouds Clear
Heat Index 75 °F
Dew Point 26 °F
Humidity 17%
Rainfall 0.00 in
Snow Depth Not available.
6:20 AM 7:47 PM
Waning Crescent, 4% visible
METAR KLAM 242135Z AUTO 21017G27KT 10SM CLR 20/M09 A2981 RMK AO2 T02031092
Pressure 29.81 in
Visibility 10.0 miles
Clouds Clear
Heat Index 75 °F
Dew Point 26 °F
Humidity 17%
Rainfall 0.00 in
Snow Depth Not available.
6:20 AM 7:47 PM
Waning Crescent, 4% visible
METAR KLAM 242135Z AUTO 21017G27KT 10SM CLR 20/M09 A2981 RMK AO2 T02031092

Get Your Daily Forecast Email!

Thanks for signing up!

Be on the lookout for a verification email in your inbox.

You'll start receiving severe weather alerts in your inbox..

×

10-Day Weather Forecast

Almanac

Astronomy

Apr. 24, 2017 Rise Set
Actual Time
Civil Twilight
Nautical Twilight
Astronomical Twilight
Moon
Length of Visible Light
Length of Day
Tomorrow will be .
, % of the Moon is Illuminated

Today's Extremes

State Highs State Lows

Community

WunderPhotos

WunderBlog® & News

Nearby

Air Quality

  Air Quality AQ Index Pollutant
Not available.

Snow Depth

Station Depth Elevation

Earthquake Activity

City Distance Mag. Time & Date
Minimum magnitude displayed is 2.5.

Coastal Water Temperatures

Place Temperature

Stations

Nearby Weather Stations

Station Location Temp. Windchill Dew Point Humidity Wind Precip. Elev Updated Type
                   

Watches & Warnings

Fire Weather Warning
Issued: 3:21 AM MDT Apr. 24, 2017 – National Weather Service

... Red flag warning remains in effect from 10 am this morning to
9 PM MDT this evening...

* area and timing... much of northern and central New Mexico below
significant snowpack, beginning late this morning and
continuing into this evening before diminishing.

* 20 foot winds... generally west 20 to 35 mph with gusts to near
50 mph.

* Relative humidity... 5 to 10 percent below snowpack.

* Impacts... any fires that develop will likely spread rapidly.
Outdoor burning is not recommended.

Precautionary/preparedness actions...

Please advise the appropriate officials or fire crews in the
field of this red flag warning.